createdAt,value
2022-10-05T00:01:33.791Z,7.70
2022-10-05T00:04:19.450Z,9.75
2022-10-05T00:06:50.140Z,9.52
2022-10-05T00:09:18.260Z,9.18
2022-10-05T00:11:44.928Z,9.23
2022-10-05T00:14:22.369Z,9.55
2022-10-05T00:16:49.229Z,10.65
2022-10-05T00:19:24.001Z,8.68
2022-10-05T00:21:50.428Z,6.95
2022-10-05T00:24:19.166Z,9.60
2022-10-05T00:26:46.033Z,12.55
2022-10-05T00:29:22.812Z,14.32
2022-10-05T00:31:50.124Z,8.40
2022-10-05T00:34:16.719Z,8.45
2022-10-05T00:36:43.672Z,9.77
2022-10-05T00:39:10.465Z,8.98
2022-10-05T00:41:50.261Z,10.18
2022-10-05T00:44:32.267Z,8.98
2022-10-05T00:47:16.873Z,10.63
2022-10-05T00:49:52.340Z,10.70
2022-10-05T00:52:32.385Z,9.88
2022-10-05T00:55:13.191Z,8.23
2022-10-05T00:57:49.238Z,11.07
2022-10-05T01:00:19.868Z,14.98
2022-10-05T01:02:46.457Z,8.65
2022-10-05T01:05:15.944Z,14.63
2022-10-05T01:07:42.294Z,10.88
2022-10-05T01:10:11.525Z,10.32
2022-10-05T01:12:40.875Z,9.88
2022-10-05T01:17:33.457Z,9.27
2022-10-05T01:20:17.506Z,9.38
2022-10-05T01:22:57.149Z,8.95
2022-10-05T01:25:25.211Z,10.63
2022-10-05T01:27:51.550Z,11.50
2022-10-05T01:30:20.023Z,8.73
2022-10-05T01:33:00.376Z,6.97
2022-10-05T01:35:34.297Z,14.00
2022-10-05T01:38:00.627Z,11.63
2022-10-05T01:40:29.983Z,10.75
2022-10-05T01:45:32.192Z,13.27
2022-10-05T01:48:04.228Z,16.38
2022-10-05T01:50:57.040Z,10.73
2022-10-05T01:53:39.361Z,14.13
2022-10-05T01:56:14.929Z,10.23
2022-10-05T01:58:47.330Z,14.90
2022-10-05T02:01:13.855Z,10.77
2022-10-05T02:03:43.374Z,9.77
2022-10-05T02:06:26.775Z,10.45
2022-10-05T02:09:02.906Z,12.48
2022-10-05T02:11:29.262Z,15.10
2022-10-05T02:14:07.640Z,11.07
2022-10-05T02:16:37.574Z,16.23
2022-10-05T02:19:26.507Z,11.48
2022-10-05T02:24:24.780Z,9.77
2022-10-05T02:26:52.588Z,11.52
2022-10-05T02:29:20.124Z,12.02
2022-10-05T02:31:46.617Z,12.65
2022-10-05T02:34:27.013Z,13.32
2022-10-05T02:36:57.129Z,11.68
2022-10-05T02:39:38.683Z,13.60
2022-10-05T02:42:15.228Z,10.20
2022-10-05T02:44:48.363Z,14.02
2022-10-05T02:47:20.670Z,10.55
2022-10-05T02:50:03.545Z,14.25
2022-10-05T02:52:34.847Z,11.05
2022-10-05T02:55:10.495Z,10.80
2022-10-05T02:57:42.012Z,16.05
2022-10-05T03:00:08.392Z,14.32
2022-10-05T03:02:53.512Z,13.15
2022-10-05T03:05:19.908Z,15.10
2022-10-05T03:07:52.323Z,10.05
2022-10-05T03:10:27.683Z,12.73
2022-10-05T03:13:17.116Z,14.02
2022-10-05T03:15:46.334Z,14.57
2022-10-05T03:18:29.940Z,15.40
2022-10-05T03:20:57.167Z,15.18
2022-10-05T03:23:35.806Z,15.27
2022-10-05T03:26:02.201Z,12.90
2022-10-05T03:28:31.671Z,13.90
2022-10-05T03:30:58.106Z,13.82
2022-10-05T03:33:24.462Z,14.82
2022-10-05T03:35:56.722Z,14.93
2022-10-05T03:38:23.007Z,13.20
2022-10-05T03:41:08.209Z,13.65
2022-10-05T03:43:40.733Z,13.40
2022-10-05T03:46:13.376Z,14.82
2022-10-05T03:48:39.715Z,11.90
2022-10-05T03:51:06.010Z,15.10
2022-10-05T03:53:37.903Z,15.10
2022-10-05T03:56:11.830Z,12.02
2022-10-05T03:58:45.547Z,13.98
2022-10-05T04:01:15.185Z,15.73
2022-10-05T04:03:46.345Z,13.73
2022-10-05T04:06:16.487Z,13.23
2022-10-05T04:08:48.328Z,13.75
2022-10-05T04:11:18.351Z,13.02
2022-10-05T04:14:23.260Z,19.10
2022-10-05T04:16:52.411Z,14.48
2022-10-05T04:19:27.800Z,12.38
2022-10-05T04:22:10.955Z,12.95
2022-10-05T04:24:41.952Z,15.93
2022-10-05T04:27:15.142Z,16.13
2022-10-05T04:29:41.534Z,13.88
2022-10-05T04:32:07.855Z,13.27
2022-10-05T04:34:43.668Z,12.70
2022-10-05T04:37:18.128Z,11.23
2022-10-05T04:39:53.738Z,14.85
2022-10-05T04:42:32.411Z,17.38
2022-10-05T04:45:04.567Z,11.95
2022-10-05T04:47:50.339Z,13.90
2022-10-05T04:50:36.929Z,15.32
2022-10-05T04:53:21.773Z,16.58
2022-10-05T04:55:58.123Z,14.65
2022-10-05T04:58:43.208Z,19.63
2022-10-05T05:01:25.844Z,12.82
2022-10-05T05:04:22.947Z,15.52
2022-10-05T05:07:07.955Z,14.25
2022-10-05T05:09:40.238Z,13.70
2022-10-05T05:12:15.824Z,16.48
2022-10-05T05:15:01.061Z,14.63
2022-10-05T05:17:30.410Z,15.43
2022-10-05T05:22:49.075Z,15.88
2022-10-05T05:25:19.784Z,13.93
2022-10-05T05:27:58.868Z,13.88
2022-10-05T05:30:40.217Z,14.80
2022-10-05T05:33:23.447Z,18.08
2022-10-05T05:36:10.176Z,16.70
2022-10-05T05:38:48.558Z,15.93
2022-10-05T05:41:22.524Z,12.17
2022-10-05T05:43:58.965Z,15.52
2022-10-05T05:47:02.218Z,18.60
2022-10-05T05:49:33.587Z,18.83
2022-10-05T05:52:06.492Z,19.33
2022-10-05T05:54:41.808Z,13.45
2022-10-05T05:57:10.777Z,14.07
2022-10-05T05:59:48.156Z,20.23
2022-10-05T06:02:17.226Z,11.25
2022-10-05T06:04:50.975Z,15.00
2022-10-05T06:07:19.729Z,14.48
2022-10-05T06:10:05.508Z,14.27
2022-10-05T06:12:34.490Z,15.32
2022-10-05T06:15:04.615Z,11.55
2022-10-05T06:17:37.912Z,16.55
2022-10-05T06:20:09.872Z,16.05
2022-10-05T06:22:38.609Z,15.48
2022-10-05T06:25:13.791Z,13.90
2022-10-05T06:27:59.252Z,15.32
2022-10-05T06:30:43.934Z,12.93
2022-10-05T06:33:19.157Z,12.93
2022-10-05T06:36:05.316Z,14.93
2022-10-05T06:38:44.345Z,14.60
2022-10-05T06:41:29.894Z,14.95
2022-10-05T06:44:17.314Z,16.13
2022-10-05T06:46:44.042Z,16.30
2022-10-05T06:49:19.473Z,17.42
2022-10-05T06:52:09.650Z,13.52
2022-10-05T06:55:05.236Z,19.40
2022-10-05T06:57:40.774Z,13.55
2022-10-05T07:00:22.524Z,12.82
2022-10-05T07:02:51.998Z,13.00
2022-10-05T07:05:21.419Z,16.25
2022-10-05T07:07:57.188Z,11.80
2022-10-05T07:10:23.624Z,12.13
2022-10-05T07:12:57.772Z,19.25
2022-10-05T07:15:38.114Z,12.25
2022-10-05T07:18:08.466Z,14.43
2022-10-05T07:20:53.812Z,13.90
2022-10-05T07:23:23.479Z,14.10
2022-10-05T07:26:09.599Z,13.40
2022-10-05T07:28:50.802Z,13.88
2022-10-05T07:31:32.400Z,15.32
2022-10-05T07:34:14.060Z,16.42
2022-10-05T07:36:59.270Z,12.00
2022-10-05T07:40:01.103Z,13.85
2022-10-05T07:42:51.721Z,13.77
2022-10-05T07:45:40.018Z,13.93
2022-10-05T07:48:12.497Z,12.90
2022-10-05T07:50:43.692Z,13.25
2022-10-05T07:53:21.200Z,13.70
2022-10-05T07:55:51.508Z,14.63
2022-10-05T07:58:18.637Z,14.43
2022-10-05T08:00:48.892Z,13.07
2022-10-05T08:03:29.693Z,14.27
2022-10-05T08:05:57.755Z,13.35
2022-10-05T08:08:44.578Z,15.80
2022-10-05T08:11:21.412Z,11.25
2022-10-05T08:14:10.526Z,15.07
2022-10-05T08:16:38.304Z,15.38
2022-10-05T08:19:17.178Z,16.33
2022-10-05T08:21:45.560Z,13.25
2022-10-05T08:24:18.383Z,13.35
2022-10-05T08:26:48.515Z,13.82
2022-10-05T08:29:31.610Z,12.85
2022-10-05T08:32:01.296Z,11.68
2022-10-05T08:34:37.903Z,14.00
2022-10-05T08:37:08.982Z,11.57
2022-10-05T08:39:49.157Z,11.85
2022-10-05T08:42:33.614Z,12.18
2022-10-05T08:45:12.390Z,10.52
2022-10-05T08:50:15.964Z,11.13
2022-10-05T08:52:42.277Z,10.30
2022-10-05T08:55:17.607Z,11.75
2022-10-05T08:57:49.819Z,11.00
2022-10-05T09:00:20.336Z,13.95
2022-10-05T09:03:05.192Z,9.88
2022-10-05T09:05:43.509Z,10.98
2022-10-05T09:08:34.831Z,10.95
2022-10-05T09:11:07.007Z,9.40
2022-10-05T09:13:42.867Z,9.82
2022-10-05T09:16:12.150Z,9.80
2022-10-05T09:18:44.432Z,12.13
2022-10-05T09:21:29.698Z,10.35
2022-10-05T09:24:14.383Z,11.98
2022-10-05T09:26:40.706Z,13.27
2022-10-05T09:29:25.998Z,10.43
2022-10-05T09:31:58.365Z,11.65
2022-10-05T09:34:44.736Z,10.18
2022-10-05T09:37:38.465Z,9.32
2022-10-05T09:40:23.273Z,10.27
2022-10-05T09:42:49.586Z,10.65
2022-10-05T09:45:23.283Z,10.18
2022-10-05T09:47:49.620Z,9.13
2022-10-05T09:50:46.292Z,11.60
2022-10-05T09:53:32.250Z,9.75
2022-10-05T09:56:10.581Z,9.52
2022-10-05T09:58:36.947Z,9.68
2022-10-05T10:01:29.269Z,10.45
2022-10-05T10:04:09.797Z,7.72
2022-10-05T10:06:56.342Z,9.40
2022-10-05T10:09:29.125Z,10.93
2022-10-05T10:12:01.565Z,8.98
2022-10-05T10:14:43.263Z,11.63
2022-10-05T10:17:25.055Z,11.20
2022-10-05T10:20:00.602Z,9.20
2022-10-05T10:22:45.830Z,9.77
2022-10-05T10:25:19.191Z,8.18
2022-10-05T10:27:52.374Z,9.57
2022-10-05T10:30:37.325Z,8.27
2022-10-05T10:33:03.674Z,9.40
2022-10-05T10:35:33.146Z,7.10
2022-10-05T10:38:02.660Z,12.10
2022-10-05T10:40:47.706Z,9.95
2022-10-05T10:43:14.258Z,8.23
2022-10-05T10:45:45.407Z,11.13
2022-10-05T10:48:21.018Z,8.52
2022-10-05T10:51:20.136Z,8.63
2022-10-05T10:54:09.780Z,9.20
2022-10-05T10:56:42.186Z,9.40
2022-10-05T10:59:31.594Z,9.75
2022-10-05T11:02:17.037Z,9.30
2022-10-05T11:04:53.884Z,7.40
2022-10-05T11:07:40.228Z,8.65
2022-10-05T11:10:09.652Z,9.25
2022-10-05T11:12:49.470Z,6.65
2022-10-05T11:15:18.580Z,8.90
2022-10-05T11:20:23.379Z,10.40
2022-10-05T11:22:52.711Z,10.35
2022-10-05T11:25:25.281Z,8.85
2022-10-05T11:28:03.821Z,9.27
2022-10-05T11:30:36.335Z,10.68
2022-10-05T11:33:21.147Z,7.93
2022-10-05T11:36:05.784Z,9.38
2022-10-05T11:38:32.509Z,6.57
2022-10-05T11:41:17.482Z,9.45
2022-10-05T11:43:43.774Z,8.05
2022-10-05T11:46:16.282Z,10.52
2022-10-05T11:48:50.402Z,10.07
2022-10-05T11:51:28.740Z,7.32
2022-10-05T11:53:58.452Z,8.65
2022-10-05T11:56:33.764Z,10.27
2022-10-05T11:59:11.891Z,10.63
2022-10-05T12:01:44.972Z,6.60
2022-10-05T12:04:17.905Z,9.60
2022-10-05T12:06:56.605Z,8.77
2022-10-05T12:09:29.011Z,7.68
2022-10-05T12:11:58.400Z,8.43
2022-10-05T12:14:24.958Z,7.75
2022-10-05T12:16:59.167Z,13.70
2022-10-05T12:19:34.724Z,8.85
2022-10-05T12:22:04.179Z,8.48
2022-10-05T12:24:53.334Z,8.57
2022-10-05T12:27:25.255Z,10.30
2022-10-05T12:30:10.397Z,7.55
2022-10-05T12:32:41.573Z,10.25
2022-10-05T12:35:13.697Z,8.57
2022-10-05T12:37:49.093Z,7.28
2022-10-05T12:40:18.584Z,9.45
2022-10-05T12:42:51.805Z,6.68
2022-10-05T12:45:30.450Z,7.80
2022-10-05T12:47:56.895Z,7.93
2022-10-05T12:50:23.197Z,8.27
2022-10-05T12:53:07.908Z,10.68
2022-10-05T12:55:53.301Z,7.22
2022-10-05T12:58:33.275Z,8.30
2022-10-05T13:01:21.694Z,9.65
2022-10-05T13:04:00.992Z,9.93
2022-10-05T13:06:30.041Z,8.52
2022-10-05T13:11:22.612Z,8.90
2022-10-05T13:13:55.535Z,8.13
2022-10-05T13:16:24.873Z,9.23
2022-10-05T13:19:02.152Z,9.85
2022-10-05T13:21:48.405Z,7.18
2022-10-05T13:24:14.773Z,7.75
2022-10-05T13:26:43.811Z,9.63
2022-10-05T13:29:24.629Z,8.60
2022-10-05T13:31:56.992Z,7.35
2022-10-05T13:34:42.198Z,8.23
2022-10-05T13:37:17.594Z,9.82
2022-10-05T13:39:52.770Z,9.45
2022-10-05T13:42:26.048Z,8.23
2022-10-05T13:45:12.407Z,7.75
2022-10-05T13:47:45.302Z,9.40
2022-10-05T13:50:17.822Z,9.85
2022-10-05T13:53:11.511Z,9.82
2022-10-05T13:55:45.553Z,10.98
2022-10-05T13:58:11.840Z,9.85
2022-10-05T14:00:47.435Z,10.63
2022-10-05T14:03:37.119Z,11.18
2022-10-05T14:06:14.198Z,10.38
2022-10-05T14:08:48.189Z,10.93
2022-10-05T14:11:40.862Z,9.38
2022-10-05T14:14:13.851Z,8.35
2022-10-05T14:16:56.667Z,10.23
2022-10-05T14:19:23.626Z,11.75
2022-10-05T14:22:03.311Z,8.63
2022-10-05T14:24:43.627Z,10.10
2022-10-05T14:27:30.568Z,8.88
2022-10-05T14:29:58.446Z,9.15
2022-10-05T14:32:27.067Z,9.48
2022-10-05T14:35:22.203Z,8.57
2022-10-05T14:37:56.344Z,8.63
2022-10-05T14:40:26.011Z,10.25
2022-10-05T14:42:52.707Z,8.02
2022-10-05T14:45:33.452Z,10.50
2022-10-05T14:48:00.268Z,10.20
2022-10-05T14:50:29.676Z,8.63
2022-10-05T14:53:01.252Z,10.02
2022-10-05T14:55:27.550Z,11.32
2022-10-05T14:57:53.924Z,7.30
2022-10-05T15:00:23.080Z,8.75
2022-10-05T15:03:10.758Z,7.82
2022-10-05T15:05:37.099Z,9.85
2022-10-05T15:08:06.400Z,7.53
2022-10-05T15:13:10.630Z,9.25
2022-10-05T15:15:43.628Z,8.45
2022-10-05T15:18:09.941Z,9.38
2022-10-05T15:20:43.757Z,11.30
2022-10-05T15:23:24.690Z,11.00
2022-10-05T15:25:55.617Z,10.52
2022-10-05T15:28:40.654Z,7.75
2022-10-05T15:31:18.971Z,7.20
2022-10-05T15:33:53.685Z,7.87
2022-10-05T15:36:26.381Z,7.13
2022-10-05T15:39:02.651Z,7.93
2022-10-05T15:41:41.085Z,5.28
2022-10-05T15:44:26.058Z,8.43
2022-10-05T15:46:58.900Z,8.25
2022-10-05T15:49:44.077Z,10.57
2022-10-05T15:52:19.612Z,8.27
2022-10-05T15:54:45.923Z,7.15
2022-10-05T15:57:18.277Z,8.20
2022-10-05T15:59:50.830Z,7.20
2022-10-05T16:02:29.856Z,7.88
2022-10-05T16:04:59.979Z,8.55
2022-10-05T16:07:51.016Z,7.32
2022-10-05T16:10:19.812Z,7.00
2022-10-05T16:12:58.709Z,7.95
2022-10-05T16:15:48.681Z,5.15
2022-10-05T16:18:32.194Z,6.38
2022-10-05T16:21:10.769Z,6.57
2022-10-05T16:23:52.642Z,5.50
2022-10-05T16:26:32.590Z,5.93
2022-10-05T16:28:58.867Z,4.93
2022-10-05T16:31:32.002Z,5.68
2022-10-05T16:34:07.734Z,5.70
2022-10-05T16:36:40.374Z,7.28
2022-10-05T16:39:16.554Z,7.97
2022-10-05T16:42:01.486Z,5.45
2022-10-05T16:44:46.819Z,6.43
2022-10-05T16:47:28.210Z,7.10
2022-10-05T16:50:02.499Z,5.10
2022-10-05T16:52:28.943Z,6.50
2022-10-05T16:55:02.790Z,7.57
2022-10-05T16:57:35.236Z,4.90
2022-10-05T17:00:04.762Z,5.75
2022-10-05T17:02:57.557Z,5.88
2022-10-05T17:05:44.207Z,5.95
2022-10-05T17:08:10.566Z,6.20
2022-10-05T17:10:37.175Z,5.85
2022-10-05T17:13:13.683Z,6.78
2022-10-05T17:16:12.147Z,8.20
2022-10-05T17:18:57.222Z,9.00
2022-10-05T17:21:24.717Z,6.05
2022-10-05T17:23:55.094Z,7.78
2022-10-05T17:26:21.488Z,7.40
2022-10-05T17:28:50.696Z,7.35
2022-10-05T17:31:23.581Z,10.60
2022-10-05T17:34:13.264Z,7.82
2022-10-05T17:36:48.782Z,8.57
2022-10-05T17:39:16.207Z,8.32
2022-10-05T17:41:43.154Z,10.20
2022-10-05T17:44:16.158Z,9.18
2022-10-05T17:46:47.742Z,8.32
2022-10-05T17:49:21.608Z,8.85
2022-10-05T17:52:06.394Z,8.30
2022-10-05T17:55:11.809Z,11.68
2022-10-05T17:57:39.580Z,8.50
2022-10-05T18:00:27.709Z,9.32
2022-10-05T18:02:58.256Z,7.93
2022-10-05T18:05:27.741Z,8.50
2022-10-05T18:08:12.745Z,7.70
2022-10-05T18:10:59.049Z,6.68
2022-10-05T18:13:41.656Z,8.02
2022-10-05T18:16:10.180Z,6.93
2022-10-05T18:18:57.253Z,6.40
2022-10-05T18:21:23.577Z,6.95
2022-10-05T18:23:50.146Z,7.35
2022-10-05T18:26:29.240Z,6.88
2022-10-05T18:29:13.718Z,7.22
2022-10-05T18:31:46.701Z,7.45
2022-10-05T18:34:13.292Z,7.55
2022-10-05T18:36:44.405Z,5.38
2022-10-05T18:39:15.082Z,5.63
2022-10-05T18:41:41.429Z,6.65
2022-10-05T18:44:19.071Z,5.70
2022-10-05T18:46:45.780Z,7.05
2022-10-05T18:49:31.161Z,6.05
2022-10-05T18:52:05.316Z,6.40
2022-10-05T18:54:47.029Z,6.82
2022-10-05T18:57:29.339Z,5.60
2022-10-05T19:00:13.395Z,8.05
2022-10-05T19:02:45.869Z,6.22
2022-10-05T19:05:46.381Z,6.40
2022-10-05T19:08:14.992Z,6.53
2022-10-05T19:10:56.386Z,6.95
2022-10-05T19:13:27.756Z,6.50
2022-10-05T19:15:54.340Z,6.88
2022-10-05T19:18:36.912Z,7.20
2022-10-05T19:21:25.195Z,6.57
2022-10-05T19:24:09.678Z,5.40
2022-10-05T19:26:36.124Z,5.95
2022-10-05T19:29:33.460Z,8.40
2022-10-05T19:32:03.291Z,7.55
2022-10-05T19:34:42.294Z,6.65
2022-10-05T19:37:27.593Z,7.47
2022-10-05T19:39:59.989Z,6.43
2022-10-05T19:42:32.179Z,5.70
2022-10-05T19:45:02.924Z,6.47
2022-10-05T19:47:49.994Z,7.70
2022-10-05T19:50:30.290Z,6.00
2022-10-05T19:53:02.440Z,6.05
2022-10-05T19:55:34.623Z,5.75
2022-10-05T19:58:01.257Z,5.53
2022-10-05T20:00:32.111Z,8.13
2022-10-05T20:03:11.997Z,8.98
2022-10-05T20:05:38.831Z,5.32
2022-10-05T20:08:05.875Z,5.97
2022-10-05T20:10:32.905Z,9.50
2022-10-05T20:13:03.957Z,7.15
2022-10-05T20:15:50.470Z,5.38
2022-10-05T20:18:54.354Z,6.05
2022-10-05T20:21:39.557Z,5.68
2022-10-05T20:24:12.891Z,6.07
2022-10-05T20:27:05.060Z,6.97
2022-10-05T20:29:33.621Z,6.20
2022-10-05T20:32:00.385Z,6.07
2022-10-05T20:34:26.826Z,6.10
2022-10-05T20:36:53.212Z,6.47
2022-10-05T20:39:21.241Z,5.28
2022-10-05T20:41:47.928Z,7.57
2022-10-05T20:44:23.254Z,6.13
2022-10-05T20:46:49.798Z,4.95
2022-10-05T20:49:16.250Z,6.78
2022-10-05T20:51:42.581Z,10.25
2022-10-05T20:54:09.286Z,5.00
2022-10-05T20:56:35.710Z,6.43
2022-10-05T20:59:02.087Z,4.85
2022-10-05T21:01:29.931Z,8.50
2022-10-05T21:03:56.322Z,5.88
2022-10-05T21:06:22.742Z,4.70
2022-10-05T21:08:51.412Z,6.88
2022-10-05T21:11:17.800Z,6.88
2022-10-05T21:13:45.334Z,7.05
2022-10-05T21:16:18.657Z,5.30
2022-10-05T21:18:49.009Z,5.43
2022-10-05T21:21:18.556Z,6.50
2022-10-05T21:23:45.591Z,6.88
2022-10-05T21:26:15.463Z,8.05
2022-10-05T21:28:44.894Z,6.40
2022-10-05T21:31:11.459Z,6.55
2022-10-05T21:33:37.830Z,6.45
2022-10-05T21:36:04.412Z,6.50
2022-10-05T21:38:31.111Z,5.35
2022-10-05T21:40:57.656Z,6.82
2022-10-05T21:43:24.280Z,5.85
2022-10-05T21:45:51.388Z,6.47
2022-10-05T21:48:18.557Z,7.55
2022-10-05T21:50:45.717Z,7.20
2022-10-05T21:53:13.600Z,5.93
2022-10-05T21:55:40.727Z,7.90
2022-10-05T21:58:07.438Z,8.45
2022-10-05T22:00:33.890Z,5.65
2022-10-05T22:03:00.222Z,6.32
2022-10-05T22:05:30.265Z,9.50
2022-10-05T22:07:56.647Z,5.65
2022-10-05T22:10:23.190Z,4.72
2022-10-05T22:12:49.545Z,5.82
2022-10-05T22:15:16.095Z,7.10
2022-10-05T22:17:42.788Z,5.22
2022-10-05T22:20:13.056Z,5.07
2022-10-05T22:22:39.395Z,5.72
2022-10-05T22:25:06.256Z,7.32
2022-10-05T22:27:33.375Z,5.78
2022-10-05T22:30:00.108Z,7.28
2022-10-05T22:32:26.470Z,6.93
2022-10-05T22:34:52.824Z,4.82
2022-10-05T22:37:19.203Z,4.93
2022-10-05T22:39:45.545Z,6.95
2022-10-05T22:42:11.952Z,6.97
2022-10-05T22:44:39.116Z,6.50
2022-10-05T22:47:05.600Z,7.85
2022-10-05T22:49:32.339Z,6.80
2022-10-05T22:51:58.755Z,6.47
2022-10-05T22:54:29.355Z,6.05
2022-10-05T22:56:59.331Z,6.20
2022-10-05T23:01:52.037Z,6.70
2022-10-05T23:04:18.445Z,8.82
2022-10-05T23:06:44.830Z,5.18
2022-10-05T23:09:11.220Z,7.00
2022-10-05T23:11:37.772Z,7.10
2022-10-05T23:14:04.158Z,8.43
2022-10-05T23:16:30.537Z,5.20
2022-10-05T23:18:57.254Z,7.10
2022-10-05T23:21:24.305Z,6.03
2022-10-05T23:23:51.308Z,5.32
2022-10-05T23:26:22.264Z,6.78
2022-10-05T23:28:49.190Z,8.90
2022-10-05T23:31:16.849Z,9.05
2022-10-05T23:33:43.498Z,7.10
2022-10-05T23:36:14.722Z,5.70
2022-10-05T23:38:41.243Z,5.03
2022-10-05T23:41:08.749Z,6.15
2022-10-05T23:43:35.666Z,6.25
2022-10-05T23:46:03.045Z,5.35
2022-10-05T23:48:33.698Z,7.28
2022-10-05T23:51:00.177Z,6.55
2022-10-05T23:53:26.581Z,6.00
2022-10-05T23:55:53.846Z,5.97
2022-10-05T23:58:20.679Z,8.82
